Time;durP1;ratioP1;P1;durP2;ratioP2;P2;SDS_P1;SDS_P2;PMS_P1;PMS_P2;Temp;Humidity;BMP_temperature;BMP_pressure;BME280_temperature;BME280_humidity;BME280_pressure;Samples;Min_cycle;Max_cycle;Signal;HPM_P1;HPM_P2
2022/12/23 00:00:01;;;;;;;;;1.00;1.00;;;;;21.57;43.61;100331.41;4979198;28;49254;-46
2022/12/23 00:02:26;;;;;;;;;0.75;0.75;;;;;21.57;43.53;100332.25;4979871;28;45300;-46
2022/12/23 00:04:51;;;;;;;;;1.33;1.00;;;;;21.58;43.47;100333.09;4978773;28;65238;-46
2022/12/23 00:07:16;;;;;;;;;1.00;1.00;;;;;21.56;43.49;100335.84;4981067;28;64993;-46
2022/12/23 00:09:42;;;;;;;;;1.00;1.00;;;;;21.55;43.54;100339.41;4991997;28;62958;-46
2022/12/23 00:15:06;;;;;;;;;2.00;1.25;;;;;21.56;43.86;100341.09;4979457;28;45431;-47
2022/12/23 00:17:36;;;;;;;;;0.00;0.00;;;;;21.53;43.45;100336.06;4979387;28;45717;-47
2022/12/23 00:20:03;;;;;;;;;1.00;1.00;;;;;21.51;43.76;100330.03;4979207;28;45404;-45
2022/12/23 00:25:13;;;;;;;;;0.25;0.00;;;;;21.51;43.74;100343.22;4998824;28;46184;-46
2022/12/23 00:27:39;;;;;;;;;0.00;0.00;;;;;21.51;43.63;100337.09;4979761;28;45187;-46
2022/12/23 00:30:09;;;;;;;;;0.00;0.00;;;;;21.51;43.55;100340.59;4986633;28;45313;-46
2022/12/23 00:32:34;;;;;;;;;1.00;1.00;;;;;21.47;43.35;100339.97;4982162;28;45426;-46
2022/12/23 00:34:59;;;;;;;;;1.50;1.00;;;;;21.50;43.52;100338.91;4990081;28;46110;-46
2022/12/23 00:37:25;;;;;;;;;0.00;0.00;;;;;21.50;43.65;100333.63;4992889;28;58908;-45
2022/12/23 00:42:52;;;;;;;;;0.00;0.00;;;;;21.48;43.75;100332.88;4982397;28;45364;-46
2022/12/23 00:45:18;;;;;;;;;1.00;1.00;;;;;21.47;43.45;100333.81;4986184;28;45445;-46
2022/12/23 00:50:31;;;;;;;;;0.00;0.00;;;;;21.46;43.42;100334.75;4979054;28;45376;-46
2022/12/23 00:52:56;;;;;;;;;0.00;0.00;;;;;21.43;43.74;100340.28;4979373;28;45507;-44
2022/12/23 00:55:22;;;;;;;;;0.00;0.00;;;;;21.44;43.55;100348.06;4979070;28;45400;-46
2022/12/23 00:57:47;;;;;;;;;1.00;1.00;;;;;21.42;43.76;100346.50;4979796;28;45426;-44
2022/12/23 01:00:13;;;;;;;;;0.00;0.00;;;;;21.43;43.60;100356.09;4978998;28;62873;-45
2022/12/23 01:05:38;;;;;;;;;0.50;0.50;;;;;21.43;43.72;100367.47;5000553;28;45004;-45
2022/12/23 01:08:06;;;;;;;;;0.00;0.00;;;;;21.43;43.77;100371.91;4979126;28;45806;-44
2022/12/23 01:10:34;;;;;;;;;1.00;0.00;;;;;21.41;43.65;100371.16;4981019;28;45352;-44
2022/12/23 01:12:59;;;;;;;;;0.25;0.00;;;;;21.42;43.65;100375.47;4991819;28;45491;-47
2022/12/23 01:15:24;;;;;;;;;0.00;0.00;;;;;21.41;43.64;100368.53;4965931;28;45231;-46
2022/12/23 01:17:49;;;;;;;;;0.00;0.00;;;;;21.39;43.69;100373.03;4980251;28;62827;-48
2022/12/23 01:20:15;;;;;;;;;0.00;0.00;;;;;21.42;43.89;100371.03;4977917;28;58038;-47
2022/12/23 01:22:40;;;;;;;;;0.50;0.00;;;;;21.40;43.90;100366.81;4978452;28;45528;-45
2022/12/23 01:25:06;;;;;;;;;1.00;1.00;;;;;21.42;43.88;100370.22;4976709;28;74978;-46
2022/12/23 01:27:31;;;;;;;;;1.00;0.00;;;;;21.41;43.81;100377.25;4977182;28;45166;-44
2022/12/23 01:29:56;;;;;;;;;0.50;0.50;;;;;21.38;43.90;100373.97;4960563;28;45388;-46
2022/12/23 01:32:22;;;;;;;;;0.00;0.00;;;;;21.41;43.50;100371.97;4977544;28;55614;-45
2022/12/23 01:34:47;;;;;;;;;0.00;0.00;;;;;21.39;43.68;100376.50;4977347;28;49446;-45
2022/12/23 01:37:12;;;;;;;;;0.00;0.00;;;;;21.40;43.87;100377.38;4976973;28;54986;-47
2022/12/23 01:39:37;;;;;;;;;0.00;0.00;;;;;21.40;43.98;100366.81;4981300;28;45861;-45
2022/12/23 01:44:56;;;;;;;;;0.00;0.00;;;;;21.37;43.67;100367.88;4977895;28;45699;-46
2022/12/23 01:47:44;;;;;;;;;2.00;0.00;;;;;21.38;43.90;100374.84;4985168;28;45628;-46
2022/12/23 01:50:18;;;;;;;;;0.00;0.00;;;;;21.38;43.99;100373.97;4982885;28;45450;-47
2022/12/23 01:52:55;;;;;;;;;0.25;0.25;;;;;21.38;44.00;100373.97;4979643;28;45395;-46
2022/12/23 01:55:26;;;;;;;;;0.00;0.00;;;;;21.38;43.95;100380.13;4992285;28;45336;-45
2022/12/23 01:57:55;;;;;;;;;0.00;0.00;;;;;21.35;43.85;100368.91;4983062;28;45371;-45
2022/12/23 02:05:50;;;;;;;;;0.00;0.00;;;;;21.35;44.07;100369.78;4976419;28;45373;-47
2022/12/23 02:11:25;;;;;;;;;2.00;0.00;;;;;21.36;43.81;100376.72;4977040;28;45404;-46
2022/12/23 02:17:30;;;;;;;;;0.00;0.00;;;;;21.33;43.98;100374.28;4978013;28;45775;-45
2022/12/23 02:20:20;;;;;;;;;0.25;0.00;;;;;21.31;44.03;100366.50;4960537;28;45506;-46
2022/12/23 02:23:14;;;;;;;;;0.00;0.00;;;;;21.33;44.20;100371.66;4980627;28;45277;-46
2022/12/23 02:26:02;;;;;;;;;0.00;0.00;;;;;21.33;44.19;100369.03;4971187;28;45231;-47
2022/12/23 02:28:27;;;;;;;;;1.00;0.00;;;;;21.34;44.07;100364.59;4982360;28;46464;-46
2022/12/23 02:31:02;;;;;;;;;0.00;0.00;;;;;21.33;43.83;100365.56;4981138;28;54591;-46
2022/12/23 02:34:14;;;;;;;;;1.00;0.00;;;;;21.28;43.78;100361.41;4963497;28;45543;-45
2022/12/23 02:36:45;;;;;;;;;0.00;0.00;;;;;21.33;43.82;100370.81;4921319;28;45300;-44
2022/12/23 02:39:25;;;;;;;;;0.00;0.00;;;;;21.31;44.25;100363.88;4974596;28;46592;-44
2022/12/23 02:42:06;;;;;;;;;0.00;0.00;;;;;21.31;44.13;100366.50;4980719;28;45179;-46
2022/12/23 02:44:42;;;;;;;;;1.25;0.00;;;;;21.26;44.51;100363.31;4980591;28;45456;-46
2022/12/23 02:47:11;;;;;;;;;0.25;0.00;;;;;21.31;43.87;100373.53;4983181;28;45341;-45
2022/12/23 02:49:43;;;;;;;;;0.75;0.00;;;;;21.30;44.30;100363.94;4982162;28;46634;-46
2022/12/23 02:52:14;;;;;;;;;0.00;0.00;;;;;21.30;44.08;100358.69;4981605;28;45257;-46
2022/12/23 02:55:05;;;;;;;;;0.25;0.00;;;;;21.29;44.13;100365.75;4980450;28;45289;-46
2022/12/23 02:57:38;;;;;;;;;1.00;0.00;;;;;21.26;44.25;100355.41;4980256;28;45220;-46
2022/12/23 03:00:05;;;;;;;;;0.00;0.00;;;;;21.30;44.16;100367.44;4983604;28;46205;-46
2022/12/23 03:02:33;;;;;;;;;0.00;0.00;;;;;21.26;44.05;100362.47;4987521;28;45550;-46
2022/12/23 03:04:58;;;;;;;;;0.00;0.00;;;;;21.28;44.41;100368.47;4967297;28;45452;-46
2022/12/23 03:07:31;;;;;;;;;1.00;0.00;;;;;21.26;44.38;100365.13;4981596;28;49253;-47
2022/12/23 03:10:23;;;;;;;;;1.00;0.00;;;;;21.25;44.26;100364.25;4980686;28;47021;-46
2022/12/23 03:13:27;;;;;;;;;0.00;0.00;;;;;21.28;44.08;100364.06;4989623;28;45742;-45
2022/12/23 03:16:04;;;;;;;;;0.00;0.00;;;;;21.27;44.28;100362.38;4969138;28;44809;-46
2022/12/23 03:18:45;;;;;;;;;0.00;0.00;;;;;21.27;44.10;100362.38;4962962;28;45511;-46
2022/12/23 03:21:27;;;;;;;;;0.00;0.00;;;;;21.27;44.11;100340.44;4979719;28;46108;-47
2022/12/23 03:24:05;;;;;;;;;0.00;0.00;;;;;21.25;44.39;100343.16;4979808;28;45433;-45
2022/12/23 03:27:00;;;;;;;;;1.00;0.00;;;;;21.26;44.51;100349.31;4961643;28;45353;-46
2022/12/23 03:29:41;;;;;;;;;0.00;0.00;;;;;21.20;44.41;100341.78;4979979;28;45278;-47
2022/12/23 03:32:09;;;;;;;;;0.00;0.00;;;;;21.26;44.09;100354.56;4979273;28;47194;-46
2022/12/23 03:34:38;;;;;;;;;2.00;0.00;;;;;21.24;44.29;100354.66;4979717;28;45727;-46
2022/12/23 03:37:08;;;;;;;;;0.75;0.00;;;;;21.24;44.26;100344.09;4983339;28;45226;-47
2022/12/23 03:39:42;;;;;;;;;0.00;0.00;;;;;21.24;44.40;100354.66;4986659;28;45386;-45
2022/12/23 03:42:18;;;;;;;;;0.50;0.00;;;;;21.18;44.44;100336.63;4983790;28;46596;-44
2022/12/23 03:44:48;;;;;;;;;0.00;0.00;;;;;21.22;44.00;100358.34;4980130;28;45413;-46
2022/12/23 03:47:18;;;;;;;;;0.00;0.00;;;;;21.23;44.51;100352.97;4979556;28;45368;-44
2022/12/23 03:49:52;;;;;;;;;0.25;0.00;;;;;21.22;44.47;100350.44;4979120;28;45419;-43
2022/12/23 03:52:23;;;;;;;;;0.00;0.00;;;;;21.22;44.20;100353.91;4978944;28;46289;-47
2022/12/23 03:54:58;;;;;;;;;0.00;0.00;;;;;21.21;44.47;100346.97;4979371;28;45656;-46
2022/12/23 03:57:33;;;;;;;;;0.00;0.00;;;;;21.21;44.25;100354.88;4979259;28;45181;-47
2022/12/23 03:59:59;;;;;;;;;0.00;0.00;;;;;21.19;44.37;100348.00;4979814;28;45246;-45
2022/12/23 04:02:46;;;;;;;;;0.00;0.00;;;;;21.19;44.20;100355.91;4978928;28;46016;-44
2022/12/23 04:05:32;;;;;;;;;1.00;0.00;;;;;21.15;44.58;100352.63;4978888;28;45214;-45
2022/12/23 04:08:03;;;;;;;;;0.00;0.00;;;;;21.20;44.16;100350.56;4979480;28;45341;-45
2022/12/23 04:10:29;;;;;;;;;0.00;0.00;;;;;21.17;44.56;100327.03;4979593;28;45226;-46
2022/12/23 04:12:55;;;;;;;;;0.00;0.00;;;;;21.20;44.34;100328.59;4979550;28;46165;-47
2022/12/23 04:15:22;;;;;;;;;0.00;0.00;;;;;21.18;44.51;100328.72;4982208;28;45337;-46
2022/12/23 04:17:49;;;;;;;;;0.00;0.00;;;;;21.20;44.54;100334.72;4968329;28;45565;-47
2022/12/23 04:20:15;;;;;;;;;0.00;0.00;;;;;21.18;44.29;100320.81;4988057;28;45443;-47
2022/12/23 04:22:42;;;;;;;;;0.00;0.00;;;;;21.18;44.55;100326.09;4995864;28;46362;-47
2022/12/23 04:25:08;;;;;;;;;0.75;0.00;;;;;21.17;44.34;100334.94;4986074;28;45399;-46
2022/12/23 04:27:34;;;;;;;;;2.00;0.00;;;;;21.15;44.65;100334.19;4995947;28;45261;-46
2022/12/23 04:29:59;;;;;;;;;0.25;0.00;;;;;21.16;44.72;100343.78;4992357;28;45539;-46
2022/12/23 04:32:25;;;;;;;;;0.00;0.00;;;;;21.15;44.11;100350.00;4985678;28;47734;-45
2022/12/23 04:34:50;;;;;;;;;0.00;0.00;;;;;21.15;44.72;100342.09;4999376;28;44943;-46
2022/12/23 04:37:16;;;;;;;;;0.00;0.00;;;;;21.17;44.35;100337.56;4990650;28;54453;-47
2022/12/23 04:39:41;;;;;;;;;2.33;0.00;;;;;21.14;44.51;100340.41;4993286;28;56341;-46
2022/12/23 04:42:06;;;;;;;;;0.00;0.00;;;;;21.16;44.45;100336.72;4984529;28;68666;-45
2022/12/23 04:44:31;;;;;;;;;0.00;0.00;;;;;21.16;44.35;100333.25;4991044;28;45277;-46
2022/12/23 04:46:57;;;;;;;;;0.00;0.00;;;;;21.15;44.26;100331.53;4983596;28;60496;-47
2022/12/23 04:49:22;;;;;;;;;0.00;0.00;;;;;21.15;44.43;100318.38;4982750;28;45308;-45
2022/12/23 04:51:47;;;;;;;;;0.00;0.00;;;;;21.14;44.33;100314.91;4978820;28;59654;-45
2022/12/23 04:54:13;;;;;;;;;0.00;0.00;;;;;21.14;44.19;100309.63;4985680;28;45506;-44
2022/12/23 04:56:38;;;;;;;;;0.00;0.00;;;;;21.14;44.71;100308.78;4983031;28;60730;-47
2022/12/23 04:59:03;;;;;;;;;0.00;0.00;;;;;21.14;44.15;100308.78;4979805;28;45327;-46
2022/12/23 05:01:28;;;;;;;;;0.00;0.00;;;;;21.12;44.47;100313.28;4978855;28;45499;-46
2022/12/23 05:03:54;;;;;;;;;0.50;0.00;;;;;21.14;44.25;100314.03;4977727;28;53009;-46
2022/12/23 05:06:19;;;;;;;;;0.00;0.00;;;;;21.14;44.76;100311.41;4977581;28;59986;-46
2022/12/23 05:08:44;;;;;;;;;2.00;0.00;;;;;21.13;44.60;100312.34;4977849;28;58636;-46
2022/12/23 05:11:10;;;;;;;;;0.00;0.00;;;;;21.07;44.66;100302.22;4964723;28;69276;-47
2022/12/23 05:13:35;;;;;;;;;0.00;0.00;;;;;21.07;44.51;100308.34;5002034;28;63729;-44
2022/12/23 05:16:01;;;;;;;;;0.00;0.00;;;;;21.12;44.31;100315.94;4986872;28;45304;-45
2022/12/23 05:18:26;;;;;;;;;0.00;0.00;;;;;21.10;43.95;100321.31;4978162;28;45604;-48
2022/12/23 05:20:51;;;;;;;;;0.00;0.00;;;;;21.09;44.93;100316.16;4977720;28;47273;-44
2022/12/23 05:23:17;;;;;;;;;0.00;0.00;;;;;21.12;44.65;100315.94;4978231;28;45451;-46
2022/12/23 05:25:42;;;;;;;;;0.00;0.00;;;;;21.12;44.50;100308.03;4977565;28;56175;-46
2022/12/23 05:28:08;;;;;;;;;0.00;0.00;;;;;21.11;44.45;100309.00;4980481;28;45541;-44
2022/12/23 05:30:34;;;;;;;;;0.00;0.00;;;;;21.07;44.23;100303.06;4985917;28;46115;-45
2022/12/23 05:32:59;;;;;;;;;0.00;0.00;;;;;21.10;44.35;100305.50;4984222;28;45233;-46
2022/12/23 05:35:25;;;;;;;;;0.00;0.00;;;;;21.08;44.25;100299.47;4980606;28;45579;-46
2022/12/23 05:37:52;;;;;;;;;0.00;0.00;;;;;21.10;44.59;100302.03;4978343;28;45790;-46
2022/12/23 05:40:18;;;;;;;;;0.50;0.50;;;;;21.09;44.39;100310.88;4988186;28;46768;-45
2022/12/23 05:42:44;;;;;;;;;0.00;0.00;;;;;21.06;44.56;100301.38;4988210;28;45266;-46
2022/12/23 05:45:10;;;;;;;;;0.00;0.00;;;;;21.09;44.53;100300.34;4978121;28;45310;-44
2022/12/23 05:47:35;;;;;;;;;1.00;1.00;;;;;21.10;44.80;100296.75;4978517;28;45508;-44
2022/12/23 05:50:01;;;;;;;;;0.00;0.00;;;;;21.09;44.52;100281.91;4977824;28;47129;-46
2022/12/23 05:52:26;;;;;;;;;0.00;0.00;;;;;21.09;44.52;100287.16;4981572;28;45340;-44
2022/12/23 05:54:52;;;;;;;;;0.00;0.00;;;;;21.06;45.13;100274.19;4990175;28;58590;-46
2022/12/23 05:57:17;;;;;;;;;1.50;0.00;;;;;21.07;44.51;100270.63;4977853;28;52852;-46
2022/12/23 05:59:42;;;;;;;;;0.00;0.00;;;;;21.08;44.94;100274.94;4979100;28;65480;-45
2022/12/23 06:02:08;;;;;;;;;0.00;0.00;;;;;21.04;44.22;100276.06;4983153;28;45186;-46
2022/12/23 06:04:33;;;;;;;;;0.00;0.00;;;;;21.04;44.48;100268.19;4981746;28;45417;-46
2022/12/23 06:06:58;;;;;;;;;0.00;0.00;;;;;21.06;44.86;100275.03;4988105;28;45507;-45
2022/12/23 06:09:24;;;;;;;;;0.00;0.00;;;;;21.03;44.89;100272.63;4988493;28;46112;-45
2022/12/23 06:11:49;;;;;;;;;1.00;0.00;;;;;21.07;44.76;100274.06;4981012;28;45372;-47
2022/12/23 06:14:14;;;;;;;;;0.00;0.00;;;;;21.12;44.71;100281.66;4984397;28;46092;-47
2022/12/23 06:16:40;;;;;;;;;0.00;0.00;;;;;21.16;44.59;100275.25;4987725;28;48890;-48
2022/12/23 06:19:05;;;;;;;;;2.50;0.00;;;;;21.14;44.90;100271.88;4983028;28;60102;-46
2022/12/23 06:21:30;;;;;;;;;0.00;0.00;;;;;21.17;44.66;100271.69;4980460;28;45345;-44
2022/12/23 06:23:56;;;;;;;;;0.00;0.00;;;;;21.17;44.71;100276.94;4981164;28;45408;-46
2022/12/23 06:26:22;;;;;;;;;0.00;0.00;;;;;21.19;44.99;100275.06;4981032;28;45333;-47
2022/12/23 06:28:47;;;;;;;;;0.00;0.00;;;;;21.18;45.13;100268.09;4981081;28;46065;-47
2022/12/23 06:31:12;;;;;;;;;0.00;0.00;;;;;21.21;44.94;100282.84;4980848;28;45333;-45
2022/12/23 06:33:37;;;;;;;;;0.00;0.00;;;;;21.20;45.07;100276.75;4980848;28;46944;-44
2022/12/23 06:36:03;;;;;;;;;0.00;0.00;;;;;21.23;45.25;100273.06;4980979;28;45408;-44
2022/12/23 06:38:28;;;;;;;;;0.00;0.00;;;;;21.21;44.93;100267.91;4980175;28;46920;-45
2022/12/23 06:40:54;;;;;;;;;0.00;0.00;;;;;21.21;44.94;100254.72;4980565;28;48412;-43
2022/12/23 06:43:20;;;;;;;;;0.00;0.00;;;;;21.22;45.28;100258.19;4985238;28;45339;-45
2022/12/23 06:45:46;;;;;;;;;0.00;0.00;;;;;21.21;45.05;100252.09;4970572;28;45361;-43
2022/12/23 06:48:12;;;;;;;;;0.00;0.00;;;;;21.16;44.98;100248.91;4982944;28;46999;-46
2022/12/23 06:50:37;;;;;;;;;0.00;0.00;;;;;21.16;45.28;100249.78;4980702;28;45487;-44
2022/12/23 06:53:02;;;;;;;;;0.00;0.00;;;;;21.17;45.10;100250.59;4979663;28;54948;-46
2022/12/23 06:55:28;;;;;;;;;0.00;0.00;;;;;21.18;45.28;100247.03;4980871;28;46237;-46
2022/12/23 06:57:53;;;;;;;;;0.00;0.00;;;;;21.17;45.35;100247.97;4980419;28;46944;-44
2022/12/23 07:00:19;;;;;;;;;0.00;0.00;;;;;21.15;45.06;100239.31;4980752;28;52627;-45
2022/12/23 07:02:44;;;;;;;;;1.25;0.00;;;;;21.13;45.37;100228.03;4981640;28;45209;-45
2022/12/23 07:05:09;;;;;;;;;0.00;0.00;;;;;21.14;45.22;100230.56;4983493;28;45563;-46
2022/12/23 07:07:35;;;;;;;;;0.25;0.00;;;;;21.12;45.19;100223.69;4981572;28;46767;-46
2022/12/23 07:10:00;;;;;;;;;0.00;0.00;;;;;21.14;45.16;100219.19;4986432;28;45187;-46
2022/12/23 07:12:25;;;;;;;;;0.00;0.00;;;;;21.08;44.96;100214.34;5002421;28;45260;-52
2022/12/23 07:14:51;;;;;;;;;0.00;0.00;;;;;21.11;45.33;100224.69;4994683;28;47779;-46
2022/12/23 07:17:16;;;;;;;;;1.00;1.00;;;;;21.11;45.31;100229.94;4980706;28;47084;-46
2022/12/23 07:19:41;;;;;;;;;0.00;0.00;;;;;21.11;45.29;100229.94;4965600;28;45264;-46
2022/12/23 07:22:09;;;;;;;;;0.00;0.00;;;;;21.07;45.03;100215.28;4969491;28;45238;-46
2022/12/23 07:24:34;;;;;;;;;0.00;0.00;;;;;21.09;45.20;100216.84;4984365;28;45561;-46
2022/12/23 07:26:59;;;;;;;;;0.00;0.00;;;;;21.08;45.27;100222.25;4979939;28;47230;-44
2022/12/23 07:29:25;;;;;;;;;1.00;0.00;;;;;21.07;45.57;100216.09;4979302;28;71566;-48
2022/12/23 07:31:51;;;;;;;;;0.00;0.00;;;;;21.06;45.11;100210.97;4979871;28;45512;-45
2022/12/23 07:34:17;;;;;;;;;1.00;0.00;;;;;21.06;45.30;100214.41;4980009;28;45395;-45
2022/12/23 07:36:42;;;;;;;;;0.50;0.50;;;;;21.05;45.52;100219.81;4979838;28;45344;-46
2022/12/23 07:39:07;;;;;;;;;1.00;0.00;;;;;21.05;45.23;100214.53;4978740;28;69480;-44
2022/12/23 07:41:33;;;;;;;;;0.00;0.00;;;;;21.03;45.38;100213.78;4979468;28;56360;-45
2022/12/23 07:43:58;;;;;;;;;0.00;0.00;;;;;21.00;45.34;100213.03;4979598;28;56127;-46
2022/12/23 07:46:23;;;;;;;;;0.00;0.00;;;;;21.00;45.46;100218.31;4979027;28;59185;-47
2022/12/23 07:48:48;;;;;;;;;2.00;0.00;;;;;20.98;45.80;100217.59;4990620;28;45192;-46
2022/12/23 07:51:14;;;;;;;;;0.00;0.00;;;;;21.00;45.79;100218.31;4984971;28;59975;-46
2022/12/23 07:53:39;;;;;;;;;0.00;0.00;;;;;21.00;45.48;100218.31;4979898;28;45373;-47
2022/12/23 07:56:05;;;;;;;;;0.00;0.00;;;;;21.00;45.95;100222.75;4979866;28;62911;-46
2022/12/23 07:58:30;;;;;;;;;1.75;0.00;;;;;20.99;45.54;100214.03;4969352;28;45259;-46
2022/12/23 08:01:04;;;;;;;;;0.00;0.00;;;;;20.97;45.65;100197.47;4986259;28;45287;-46
2022/12/23 08:03:30;;;;;;;;;0.50;0.50;;;;;20.94;45.48;100202.94;4982923;28;45405;-46
2022/12/23 08:06:07;;;;;;;;;0.00;0.00;;;;;20.98;46.06;100209.69;4982564;28;46247;-44
2022/12/23 08:08:33;;;;;;;;;1.75;0.00;;;;;20.96;45.71;100211.59;4999190;28;45294;-43
2022/12/23 08:11:00;;;;;;;;;0.00;0.00;;;;;20.97;45.70;100207.13;4995873;28;45499;-48
2022/12/23 08:13:25;;;;;;;;;0.00;0.00;;;;;20.96;45.94;100211.59;4982565;28;45476;-44
2022/12/23 08:15:56;;;;;;;;;0.00;0.00;;;;;20.93;46.00;100211.78;4990447;28;46079;-44
2022/12/23 08:18:21;;;;;;;;;0.00;0.00;;;;;20.96;46.25;100210.72;4995333;28;45277;-44
2022/12/23 08:20:58;;;;;;;;;0.00;0.00;;;;;20.94;45.95;100200.31;4981278;28;45740;-46
2022/12/23 08:23:25;;;;;;;;;0.00;0.00;;;;;20.93;46.24;100195.97;4962191;28;45369;-46
2022/12/23 08:26:26;;;;;;;;;0.00;0.00;;;;;20.90;46.18;100190.91;4978171;28;46785;-46
2022/12/23 08:28:54;;;;;;;;;0.00;0.00;;;;;20.90;46.28;100183.00;4978674;28;45360;-44
2022/12/23 08:31:23;;;;;;;;;0.00;0.00;;;;;20.89;46.02;100178.66;4981625;28;45327;-46
2022/12/23 08:33:51;;;;;;;;;0.00;0.00;;;;;20.89;45.95;100183.94;4994564;28;44755;-46
2022/12/23 08:36:20;;;;;;;;;0.00;0.00;;;;;20.88;45.98;100181.41;4984421;28;45689;-45
2022/12/23 08:38:45;;;;;;;;;0.00;0.00;;;;;20.84;46.03;100180.78;4962247;28;45330;-44
2022/12/23 08:41:14;;;;;;;;;0.00;0.00;;;;;20.84;46.05;100172.88;4991141;28;45311;-45
2022/12/23 08:43:40;;;;;;;;;0.00;0.00;;;;;20.87;46.26;100180.59;4999119;28;44901;-44
2022/12/23 08:46:06;;;;;;;;;1.00;0.00;;;;;20.86;46.34;100178.91;4996873;28;45285;-47
2022/12/23 08:48:32;;;;;;;;;0.00;0.00;;;;;20.85;46.16;100171.94;4997002;28;45146;-46
2022/12/23 08:51:04;;;;;;;;;0.00;0.00;;;;;20.84;45.93;100159.72;4981324;28;45262;-47
2022/12/23 08:53:29;;;;;;;;;1.00;0.00;;;;;20.79;45.91;100146.88;4978685;28;45347;-46
2022/12/23 08:55:55;;;;;;;;;0.00;0.00;;;;;20.84;46.11;100154.44;4978174;28;45418;-45
2022/12/23 08:58:20;;;;;;;;;1.00;0.00;;;;;20.83;46.01;100145.72;4977500;28;58007;-46
2022/12/23 09:00:45;;;;;;;;;0.00;0.00;;;;;20.83;46.10;100142.22;4977540;28;45309;-45
2022/12/23 09:03:11;;;;;;;;;0.00;0.00;;;;;20.82;46.08;100130.88;4977700;28;45668;-45
2022/12/23 09:05:40;;;;;;;;;0.00;0.00;;;;;20.82;46.09;100136.13;4978162;28;45525;-46
2022/12/23 09:08:06;;;;;;;;;1.00;0.00;;;;;20.81;46.01;100118.63;4983104;28;45712;-45
2022/12/23 09:10:31;;;;;;;;;0.00;0.00;;;;;20.80;45.69;100085.34;4994880;28;45221;-46
2022/12/23 09:12:56;;;;;;;;;0.00;0.00;;;;;20.80;46.21;100058.16;4998584;28;45353;-49
2022/12/23 09:15:22;;;;;;;;;0.00;0.00;;;;;20.80;46.01;100042.34;4983991;28;46918;-44
2022/12/23 09:17:47;;;;;;;;;0.25;0.00;;;;;20.81;46.29;100057.22;4982518;28;50320;-51
2022/12/23 09:20:12;;;;;;;;;0.00;0.00;;;;;20.80;46.20;100053.75;4991851;28;46715;-48
2022/12/23 09:22:38;;;;;;;;;0.50;0.00;;;;;20.81;46.15;100073.00;4992426;28;45283;-47
2022/12/23 09:25:04;;;;;;;;;0.00;0.00;;;;;20.80;45.89;100093.25;4977961;28;45916;-47
2022/12/23 09:27:29;;;;;;;;;0.00;0.00;;;;;20.80;46.16;100100.28;4977647;28;45822;-46
2022/12/23 09:29:55;;;;;;;;;0.00;0.00;;;;;20.80;46.13;100121.34;4960202;28;45271;-46
2022/12/23 09:32:20;;;;;;;;;1.00;0.00;;;;;20.80;46.23;100116.09;4960093;28;45387;-46
2022/12/23 09:34:45;;;;;;;;;1.25;0.00;;;;;20.78;45.93;100113.56;4977003;28;46856;-45
2022/12/23 09:37:15;;;;;;;;;0.00;0.00;;;;;20.75;46.03;100113.78;4977529;28;45167;-46
2022/12/23 09:39:41;;;;;;;;;0.00;0.00;;;;;20.77;45.78;100116.31;4977633;28;45291;-46
2022/12/23 09:42:45;;;;;;;;;0.00;0.00;;;;;20.77;46.07;100127.69;4977797;28;45530;-45
2022/12/23 09:45:23;;;;;;;;;0.00;0.00;;;;;20.78;46.00;100139.06;4978428;28;47343;-46
2022/12/23 09:47:50;;;;;;;;;0.25;0.00;;;;;20.77;46.04;100127.69;4978314;28;45241;-46
2022/12/23 09:50:33;;;;;;;;;0.00;0.00;;;;;20.75;45.94;100128.75;4963931;28;45291;-44
2022/12/23 09:53:07;;;;;;;;;0.00;0.00;;;;;20.74;45.92;100134.91;4985178;28;45217;-47
2022/12/23 09:56:05;;;;;;;;;0.00;0.00;;;;;20.77;45.93;100137.38;4995281;28;46457;-46
2022/12/23 09:58:53;;;;;;;;;0.00;0.00;;;;;20.76;46.08;100130.44;4998783;28;45626;-47
2022/12/23 10:01:31;;;;;;;;;0.00;0.00;;;;;20.77;45.92;100126.84;4985888;28;45384;-47
2022/12/23 10:04:21;;;;;;;;;0.00;0.00;;;;;20.76;46.06;100115.47;4977973;28;45411;-43
2022/12/23 10:06:53;;;;;;;;;0.00;0.00;;;;;20.69;46.25;100107.09;4977616;28;47088;-46
2022/12/23 10:09:18;;;;;;;;;0.00;0.00;;;;;20.74;46.26;100125.25;4977626;28;45272;-47
2022/12/23 10:11:48;;;;;;;;;0.00;0.00;;;;;20.76;46.11;100127.81;4976730;28;45314;-47
2022/12/23 10:14:20;;;;;;;;;0.00;0.00;;;;;20.74;46.23;100127.03;4977455;28;45473;-47
2022/12/23 10:16:52;;;;;;;;;0.00;0.00;;;;;20.74;45.77;100124.38;4967097;28;47248;-46
2022/12/23 10:19:32;;;;;;;;;0.00;0.00;;;;;20.72;46.07;100105.22;4989410;28;45371;-45
2022/12/23 10:22:13;;;;;;;;;0.00;0.00;;;;;20.69;45.90;100093.94;4979548;28;45258;-45
2022/12/23 10:24:43;;;;;;;;;0.00;0.00;;;;;20.76;46.35;100109.38;4977542;28;45301;-46
2022/12/23 10:27:18;;;;;;;;;0.00;0.00;;;;;20.74;45.74;100106.81;4993513;28;45390;-45
2022/12/23 10:29:44;;;;;;;;;0.00;0.00;;;;;20.71;46.23;100107.00;5001733;28;49911;-44
2022/12/23 10:32:18;;;;;;;;;0.00;0.00;;;;;20.73;46.04;100115.63;4979870;28;57298;-45
2022/12/23 10:35:09;;;;;;;;;0.00;0.00;;;;;20.71;46.30;100099.13;4985811;28;45420;-46
2022/12/23 10:37:53;;;;;;;;;0.00;0.00;;;;;20.73;46.05;100104.25;4960862;28;46188;-46
2022/12/23 10:40:29;;;;;;;;;0.00;0.00;;;;;20.73;46.29;100106.91;4977640;28;45218;-46
2022/12/23 10:43:40;;;;;;;;;0.00;0.00;;;;;20.73;46.02;100112.16;4976949;28;45266;-47
2022/12/23 10:46:47;;;;;;;;;0.00;0.00;;;;;20.73;46.34;100109.53;4978020;28;45396;-51
2022/12/23 10:49:23;;;;;;;;;0.00;0.00;;;;;20.68;46.12;100108.03;4979578;28;46349;-44
2022/12/23 10:51:55;;;;;;;;;0.00;0.00;;;;;20.68;46.09;100097.50;4981942;28;46919;-46
2022/12/23 10:54:26;;;;;;;;;0.00;0.00;;;;;20.67;45.50;100101.09;4996080;28;44734;-46
2022/12/23 10:56:53;;;;;;;;;0.00;0.00;;;;;20.71;45.82;100096.47;4983006;28;45272;-46
2022/12/23 10:59:24;;;;;;;;;0.00;0.00;;;;;20.68;46.20;100108.03;4979975;28;46131;-45
2022/12/23 11:02:13;;;;;;;;;0.00;0.00;;;;;20.72;45.79;100092.03;4981990;28;45361;-45
2022/12/23 11:04:40;;;;;;;;;0.00;0.00;;;;;20.68;46.20;100081.72;4987264;28;45400;-46
2022/12/23 11:07:09;;;;;;;;;0.00;0.00;;;;;20.68;46.43;100086.97;4988021;28;45352;-47
2022/12/23 11:09:40;;;;;;;;;0.00;0.00;;;;;20.69;45.77;100090.47;4987418;28;46950;-44
2022/12/23 11:12:09;;;;;;;;;0.00;0.00;;;;;20.68;45.90;100089.59;4990560;28;45379;-46
2022/12/23 11:14:49;;;;;;;;;0.00;0.00;;;;;20.70;46.02;100100.88;4987934;28;45316;-45
2022/12/23 11:17:26;;;;;;;;;0.00;0.00;;;;;20.69;46.25;100124.69;5000275;28;44732;-46
2022/12/23 11:20:14;;;;;;;;;0.00;0.00;;;;;20.68;45.75;100115.94;4997144;28;46209;-44
2022/12/23 11:22:49;;;;;;;;;0.00;0.00;;;;;20.69;45.99;100133.44;5001021;28;45242;-44
2022/12/23 11:25:26;;;;;;;;;0.00;0.00;;;;;20.70;45.99;100126.41;4999420;28;44720;-50
2022/12/23 11:28:17;;;;;;;;;0.00;0.00;;;;;20.70;46.08;100140.38;4980356;28;45324;-46
2022/12/23 11:31:13;;;;;;;;;0.00;0.00;;;;;20.71;45.95;100146.50;4991990;28;46181;-44
2022/12/23 11:33:56;;;;;;;;;0.00;0.00;;;;;20.68;46.31;100123.84;5000135;28;45249;-46
2022/12/23 11:36:24;;;;;;;;;0.00;0.00;;;;;20.68;45.75;100115.94;4999690;28;44764;-46
2022/12/23 11:39:01;;;;;;;;;0.00;0.00;;;;;20.69;45.84;100128.16;5000179;28;44886;-46
2022/12/23 11:41:33;;;;;;;;;0.00;0.00;;;;;20.71;46.21;100130.72;4999874;28;49160;-46
2022/12/23 11:44:10;;;;;;;;;0.00;0.00;;;;;20.70;45.85;100121.94;4977002;28;45448;-45
2022/12/23 11:46:35;;;;;;;;;0.00;0.00;;;;;20.70;45.99;100121.13;4979282;28;45400;-47
2022/12/23 11:49:18;;;;;;;;;0.00;0.00;;;;;20.67;46.13;100110.78;4978634;28;47405;-44
2022/12/23 11:51:47;;;;;;;;;0.00;0.00;;;;;20.69;46.10;100106.28;4978451;28;46792;-44
2022/12/23 11:54:17;;;;;;;;;0.00;0.00;;;;;20.70;45.96;100111.41;4978919;28;45318;-46
2022/12/23 11:56:43;;;;;;;;;0.00;0.00;;;;;20.67;46.20;100103.72;4978685;28;46136;-46
2022/12/23 11:59:26;;;;;;;;;0.00;0.00;;;;;20.69;46.05;100116.81;4979357;28;45531;-46
2022/12/23 12:01:53;;;;;;;;;1.00;0.00;;;;;20.68;46.14;100102.78;4979424;28;45405;-46
2022/12/23 12:04:22;;;;;;;;;0.25;0.00;;;;;20.72;45.91;100102.56;4979010;28;45778;-45
2022/12/23 12:06:50;;;;;;;;;0.00;0.00;;;;;20.72;46.07;100108.69;4994364;28;44776;-47